sensor_id;sensor_type;location;lat;lon;timestamp;P1;durP1;ratioP1;P2;durP2;ratioP2
15616;SDS011;7908;51.688;7.130;2023-08-12T00:01:08;21.95;;;18.25;;
15616;SDS011;7908;51.688;7.130;2023-08-12T00:03:38;21.20;;;17.60;;
15616;SDS011;7908;51.688;7.130;2023-08-12T00:06:07;30.23;;;21.42;;
15616;SDS011;7908;51.688;7.130;2023-08-12T00:08:36;26.85;;;20.13;;
15616;SDS011;7908;51.688;7.130;2023-08-12T00:11:05;23.38;;;18.60;;
15616;SDS011;7908;51.688;7.130;2023-08-12T00:13:34;24.52;;;19.27;;
15616;SDS011;7908;51.688;7.130;2023-08-12T00:16:03;28.75;;;22.27;;
15616;SDS011;7908;51.688;7.130;2023-08-12T00:18:32;27.27;;;21.38;;
15616;SDS011;7908;51.688;7.130;2023-08-12T00:21:09;32.72;;;24.08;;
15616;SDS011;7908;51.688;7.130;2023-08-12T00:23:39;32.22;;;23.42;;
15616;SDS011;7908;51.688;7.130;2023-08-12T00:26:08;29.40;;;21.10;;
15616;SDS011;7908;51.688;7.130;2023-08-12T00:28:37;28.65;;;20.88;;
15616;SDS011;7908;51.688;7.130;2023-08-12T00:31:08;27.05;;;21.38;;
15616;SDS011;7908;51.688;7.130;2023-08-12T00:33:37;33.60;;;23.30;;
15616;SDS011;7908;51.688;7.130;2023-08-12T00:36:08;23.80;;;18.98;;
15616;SDS011;7908;51.688;7.130;2023-08-12T00:38:37;29.85;;;18.13;;
15616;SDS011;7908;51.688;7.130;2023-08-12T00:41:06;24.58;;;17.33;;
15616;SDS011;7908;51.688;7.130;2023-08-12T00:43:35;24.88;;;18.27;;
15616;SDS011;7908;51.688;7.130;2023-08-12T00:46:05;25.77;;;19.90;;
15616;SDS011;7908;51.688;7.130;2023-08-12T00:48:34;23.80;;;17.55;;
15616;SDS011;7908;51.688;7.130;2023-08-12T00:51:03;20.52;;;16.83;;
15616;SDS011;7908;51.688;7.130;2023-08-12T00:53:36;20.10;;;15.85;;
15616;SDS011;7908;51.688;7.130;2023-08-12T00:56:05;21.10;;;16.70;;
15616;SDS011;7908;51.688;7.130;2023-08-12T00:58:33;21.40;;;17.50;;
15616;SDS011;7908;51.688;7.130;2023-08-12T01:01:03;20.17;;;16.45;;
15616;SDS011;7908;51.688;7.130;2023-08-12T01:03:32;26.70;;;18.17;;
15616;SDS011;7908;51.688;7.130;2023-08-12T01:06:02;25.15;;;18.45;;
15616;SDS011;7908;51.688;7.130;2023-08-12T01:08:35;20.90;;;17.58;;
15616;SDS011;7908;51.688;7.130;2023-08-12T01:11:06;22.23;;;16.55;;
15616;SDS011;7908;51.688;7.130;2023-08-12T01:13:42;23.75;;;17.17;;
15616;SDS011;7908;51.688;7.130;2023-08-12T01:16:17;23.30;;;17.88;;
15616;SDS011;7908;51.688;7.130;2023-08-12T01:18:49;23.27;;;19.58;;
15616;SDS011;7908;51.688;7.130;2023-08-12T01:21:19;29.35;;;21.67;;
15616;SDS011;7908;51.688;7.130;2023-08-12T01:23:51;23.60;;;19.23;;
15616;SDS011;7908;51.688;7.130;2023-08-12T01:26:20;25.77;;;19.90;;
15616;SDS011;7908;51.688;7.130;2023-08-12T01:28:50;21.02;;;16.83;;
15616;SDS011;7908;51.688;7.130;2023-08-12T01:31:22;19.50;;;15.33;;
15616;SDS011;7908;51.688;7.130;2023-08-12T01:33:58;22.10;;;16.63;;
15616;SDS011;7908;51.688;7.130;2023-08-12T01:36:35;18.15;;;13.75;;
15616;SDS011;7908;51.688;7.130;2023-08-12T01:39:08;16.00;;;13.30;;
15616;SDS011;7908;51.688;7.130;2023-08-12T01:41:39;25.25;;;17.58;;
15616;SDS011;7908;51.688;7.130;2023-08-12T01:44:09;26.55;;;18.60;;
15616;SDS011;7908;51.688;7.130;2023-08-12T01:46:38;25.77;;;18.95;;
15616;SDS011;7908;51.688;7.130;2023-08-12T01:49:07;30.17;;;18.83;;
15616;SDS011;7908;51.688;7.130;2023-08-12T01:51:36;26.40;;;18.25;;
15616;SDS011;7908;51.688;7.130;2023-08-12T01:54:08;24.27;;;18.35;;
15616;SDS011;7908;51.688;7.130;2023-08-12T01:56:37;21.73;;;17.08;;
15616;SDS011;7908;51.688;7.130;2023-08-12T01:59:05;24.43;;;17.17;;
15616;SDS011;7908;51.688;7.130;2023-08-12T02:01:34;20.57;;;15.47;;
15616;SDS011;7908;51.688;7.130;2023-08-12T02:04:03;23.40;;;17.52;;
15616;SDS011;7908;51.688;7.130;2023-08-12T02:06:32;21.75;;;16.63;;
15616;SDS011;7908;51.688;7.130;2023-08-12T02:09:02;24.95;;;15.77;;
15616;SDS011;7908;51.688;7.130;2023-08-12T02:11:33;24.20;;;16.58;;
15616;SDS011;7908;51.688;7.130;2023-08-12T02:14:05;22.20;;;17.13;;
15616;SDS011;7908;51.688;7.130;2023-08-12T02:16:34;24.60;;;17.33;;
15616;SDS011;7908;51.688;7.130;2023-08-12T02:19:03;28.70;;;18.45;;
15616;SDS011;7908;51.688;7.130;2023-08-12T02:21:32;26.23;;;17.45;;
15616;SDS011;7908;51.688;7.130;2023-08-12T02:24:00;20.60;;;15.95;;
15616;SDS011;7908;51.688;7.130;2023-08-12T02:26:30;17.55;;;14.65;;
15616;SDS011;7908;51.688;7.130;2023-08-12T02:29:01;24.92;;;16.85;;
15616;SDS011;7908;51.688;7.130;2023-08-12T02:31:31;28.70;;;18.27;;
15616;SDS011;7908;51.688;7.130;2023-08-12T02:33:59;28.47;;;18.97;;
15616;SDS011;7908;51.688;7.130;2023-08-12T02:36:29;30.08;;;19.98;;
15616;SDS011;7908;51.688;7.130;2023-08-12T02:38:58;32.20;;;19.95;;
15616;SDS011;7908;51.688;7.130;2023-08-12T02:41:27;35.30;;;21.77;;
15616;SDS011;7908;51.688;7.130;2023-08-12T02:43:55;26.60;;;19.43;;
15616;SDS011;7908;51.688;7.130;2023-08-12T02:46:25;35.92;;;23.27;;
15616;SDS011;7908;51.688;7.130;2023-08-12T02:48:54;40.20;;;24.43;;
15616;SDS011;7908;51.688;7.130;2023-08-12T02:51:23;44.10;;;25.35;;
15616;SDS011;7908;51.688;7.130;2023-08-12T02:53:52;34.25;;;23.10;;
15616;SDS011;7908;51.688;7.130;2023-08-12T02:56:21;40.90;;;26.08;;
15616;SDS011;7908;51.688;7.130;2023-08-12T02:58:49;47.07;;;29.00;;
15616;SDS011;7908;51.688;7.130;2023-08-12T03:01:19;53.80;;;31.67;;
15616;SDS011;7908;51.688;7.130;2023-08-12T03:03:50;56.15;;;29.92;;
15616;SDS011;7908;51.688;7.130;2023-08-12T03:06:18;51.08;;;30.27;;
15616;SDS011;7908;51.688;7.130;2023-08-12T03:08:46;60.83;;;32.10;;
15616;SDS011;7908;51.688;7.130;2023-08-12T03:11:15;57.20;;;31.30;;
15616;SDS011;7908;51.688;7.130;2023-08-12T03:13:45;58.92;;;32.97;;
15616;SDS011;7908;51.688;7.130;2023-08-12T03:16:15;60.67;;;31.27;;
15616;SDS011;7908;51.688;7.130;2023-08-12T03:18:44;66.43;;;34.77;;
15616;SDS011;7908;51.688;7.130;2023-08-12T03:21:15;74.30;;;37.50;;
15616;SDS011;7908;51.688;7.130;2023-08-12T03:23:43;62.33;;;32.70;;
15616;SDS011;7908;51.688;7.130;2023-08-12T03:26:13;69.22;;;35.55;;
15616;SDS011;7908;51.688;7.130;2023-08-12T03:28:42;74.47;;;36.22;;
15616;SDS011;7908;51.688;7.130;2023-08-12T03:31:11;55.63;;;31.63;;
15616;SDS011;7908;51.688;7.130;2023-08-12T03:33:39;67.38;;;34.78;;
15616;SDS011;7908;51.688;7.130;2023-08-12T03:36:08;67.38;;;33.50;;
15616;SDS011;7908;51.688;7.130;2023-08-12T03:38:38;69.85;;;35.72;;
15616;SDS011;7908;51.688;7.130;2023-08-12T03:41:08;65.38;;;32.58;;
15616;SDS011;7908;51.688;7.130;2023-08-12T03:43:37;61.60;;;33.15;;
15616;SDS011;7908;51.688;7.130;2023-08-12T03:46:05;75.57;;;37.38;;
15616;SDS011;7908;51.688;7.130;2023-08-12T03:48:34;67.77;;;34.47;;
15616;SDS011;7908;51.688;7.130;2023-08-12T03:51:04;73.82;;;37.05;;
15616;SDS011;7908;51.688;7.130;2023-08-12T03:53:33;71.03;;;34.77;;
15616;SDS011;7908;51.688;7.130;2023-08-12T03:56:04;58.05;;;32.63;;
15616;SDS011;7908;51.688;7.130;2023-08-12T03:58:32;57.78;;;30.25;;
15616;SDS011;7908;51.688;7.130;2023-08-12T04:01:02;52.08;;;27.85;;
15616;SDS011;7908;51.688;7.130;2023-08-12T04:03:31;56.28;;;30.88;;
15616;SDS011;7908;51.688;7.130;2023-08-12T04:06:00;53.78;;;29.83;;
15616;SDS011;7908;51.688;7.130;2023-08-12T04:08:29;52.88;;;29.33;;
15616;SDS011;7908;51.688;7.130;2023-08-12T04:10:59;50.08;;;28.13;;
15616;SDS011;7908;51.688;7.130;2023-08-12T04:13:31;44.58;;;24.25;;
15616;SDS011;7908;51.688;7.130;2023-08-12T04:16:00;55.20;;;29.02;;
15616;SDS011;7908;51.688;7.130;2023-08-12T04:18:29;66.47;;;29.98;;
15616;SDS011;7908;51.688;7.130;2023-08-12T04:20:57;46.90;;;26.60;;
15616;SDS011;7908;51.688;7.130;2023-08-12T04:23:26;49.45;;;26.05;;
15616;SDS011;7908;51.688;7.130;2023-08-12T04:25:56;40.70;;;24.38;;
15616;SDS011;7908;51.688;7.130;2023-08-12T04:28:26;41.20;;;23.60;;
15616;SDS011;7908;51.688;7.130;2023-08-12T04:30:57;46.72;;;24.95;;
15616;SDS011;7908;51.688;7.130;2023-08-12T04:33:25;53.20;;;28.80;;
15616;SDS011;7908;51.688;7.130;2023-08-12T04:35:54;55.13;;;28.77;;
15616;SDS011;7908;51.688;7.130;2023-08-12T04:38:23;71.90;;;32.95;;
15616;SDS011;7908;51.688;7.130;2023-08-12T04:40:54;50.50;;;27.17;;
15616;SDS011;7908;51.688;7.130;2023-08-12T04:43:24;52.83;;;29.70;;
15616;SDS011;7908;51.688;7.130;2023-08-12T04:45:53;61.78;;;33.55;;
15616;SDS011;7908;51.688;7.130;2023-08-12T04:48:23;60.15;;;30.40;;
15616;SDS011;7908;51.688;7.130;2023-08-12T04:50:51;57.27;;;28.80;;
15616;SDS011;7908;51.688;7.130;2023-08-12T04:53:21;43.10;;;24.42;;
15616;SDS011;7908;51.688;7.130;2023-08-12T04:55:49;46.92;;;25.75;;
15616;SDS011;7908;51.688;7.130;2023-08-12T04:58:18;64.03;;;31.63;;
15616;SDS011;7908;51.688;7.130;2023-08-12T05:00:47;67.88;;;32.60;;
15616;SDS011;7908;51.688;7.130;2023-08-12T05:03:16;64.03;;;31.55;;
15616;SDS011;7908;51.688;7.130;2023-08-12T05:05:49;56.38;;;29.20;;
15616;SDS011;7908;51.688;7.130;2023-08-12T05:08:19;61.03;;;33.37;;
15616;SDS011;7908;51.688;7.130;2023-08-12T05:10:49;56.28;;;30.70;;
15616;SDS011;7908;51.688;7.130;2023-08-12T05:13:18;56.70;;;28.90;;
15616;SDS011;7908;51.688;7.130;2023-08-12T05:15:46;61.67;;;32.58;;
15616;SDS011;7908;51.688;7.130;2023-08-12T05:18:15;61.70;;;31.27;;
15616;SDS011;7908;51.688;7.130;2023-08-12T05:20:46;54.97;;;30.10;;
15616;SDS011;7908;51.688;7.130;2023-08-12T05:23:16;66.93;;;31.07;;
15616;SDS011;7908;51.688;7.130;2023-08-12T05:25:44;46.15;;;26.38;;
15616;SDS011;7908;51.688;7.130;2023-08-12T05:28:19;44.45;;;25.75;;
15616;SDS011;7908;51.688;7.130;2023-08-12T05:30:48;51.45;;;26.42;;
15616;SDS011;7908;51.688;7.130;2023-08-12T05:33:16;57.42;;;29.67;;
15616;SDS011;7908;51.688;7.130;2023-08-12T05:35:46;49.65;;;28.52;;
15616;SDS011;7908;51.688;7.130;2023-08-12T05:38:16;42.95;;;24.48;;
15616;SDS011;7908;51.688;7.130;2023-08-12T05:40:45;38.72;;;22.40;;
15616;SDS011;7908;51.688;7.130;2023-08-12T05:43:14;39.63;;;21.95;;
15616;SDS011;7908;51.688;7.130;2023-08-12T05:45:43;32.08;;;18.52;;
15616;SDS011;7908;51.688;7.130;2023-08-12T05:48:12;34.08;;;21.45;;
15616;SDS011;7908;51.688;7.130;2023-08-12T05:50:40;37.75;;;21.60;;
15616;SDS011;7908;51.688;7.130;2023-08-12T05:53:09;32.58;;;19.90;;
15616;SDS011;7908;51.688;7.130;2023-08-12T05:55:39;39.13;;;22.40;;
15616;SDS011;7908;51.688;7.130;2023-08-12T05:58:09;46.17;;;25.90;;
15616;SDS011;7908;51.688;7.130;2023-08-12T06:00:37;33.17;;;21.25;;
15616;SDS011;7908;51.688;7.130;2023-08-12T06:03:12;46.88;;;25.98;;
15616;SDS011;7908;51.688;7.130;2023-08-12T06:05:41;50.40;;;27.88;;
15616;SDS011;7908;51.688;7.130;2023-08-12T06:08:12;37.67;;;23.63;;
15616;SDS011;7908;51.688;7.130;2023-08-12T06:10:48;42.22;;;24.30;;
15616;SDS011;7908;51.688;7.130;2023-08-12T06:13:29;36.03;;;23.33;;
15616;SDS011;7908;51.688;7.130;2023-08-12T06:15:58;40.30;;;24.45;;
15616;SDS011;7908;51.688;7.130;2023-08-12T06:18:27;34.75;;;23.98;;
15616;SDS011;7908;51.688;7.130;2023-08-12T06:20:56;34.53;;;24.42;;
15616;SDS011;7908;51.688;7.130;2023-08-12T06:23:25;34.35;;;23.25;;
15616;SDS011;7908;51.688;7.130;2023-08-12T06:25:59;30.52;;;21.83;;
15616;SDS011;7908;51.688;7.130;2023-08-12T06:28:27;30.13;;;20.20;;
15616;SDS011;7908;51.688;7.130;2023-08-12T06:30:56;31.27;;;22.45;;
15616;SDS011;7908;51.688;7.130;2023-08-12T06:33:26;34.38;;;23.15;;
15616;SDS011;7908;51.688;7.130;2023-08-12T06:35:57;33.10;;;22.25;;
15616;SDS011;7908;51.688;7.130;2023-08-12T06:38:26;30.13;;;21.02;;
15616;SDS011;7908;51.688;7.130;2023-08-12T06:40:55;28.60;;;18.65;;
15616;SDS011;7908;51.688;7.130;2023-08-12T06:43:26;28.20;;;19.45;;
15616;SDS011;7908;51.688;7.130;2023-08-12T06:45:56;26.10;;;19.60;;
15616;SDS011;7908;51.688;7.130;2023-08-12T06:48:28;25.75;;;16.80;;
15616;SDS011;7908;51.688;7.130;2023-08-12T06:50:57;28.20;;;19.40;;
15616;SDS011;7908;51.688;7.130;2023-08-12T06:53:27;26.27;;;19.50;;
15616;SDS011;7908;51.688;7.130;2023-08-12T06:55:55;31.75;;;21.48;;
15616;SDS011;7908;51.688;7.130;2023-08-12T06:58:25;33.10;;;22.98;;
15616;SDS011;7908;51.688;7.130;2023-08-12T07:00:55;30.90;;;22.45;;
15616;SDS011;7908;51.688;7.130;2023-08-12T07:03:27;30.05;;;21.95;;
15616;SDS011;7908;51.688;7.130;2023-08-12T07:05:56;33.35;;;21.92;;
15616;SDS011;7908;51.688;7.130;2023-08-12T07:08:28;26.10;;;19.73;;
15616;SDS011;7908;51.688;7.130;2023-08-12T07:11:00;26.98;;;19.40;;
15616;SDS011;7908;51.688;7.130;2023-08-12T07:13:33;31.08;;;21.55;;
15616;SDS011;7908;51.688;7.130;2023-08-12T07:16:02;31.08;;;21.08;;
15616;SDS011;7908;51.688;7.130;2023-08-12T07:18:31;29.35;;;19.85;;
15616;SDS011;7908;51.688;7.130;2023-08-12T07:21:02;30.05;;;19.35;;
15616;SDS011;7908;51.688;7.130;2023-08-12T07:23:31;24.13;;;18.75;;
15616;SDS011;7908;51.688;7.130;2023-08-12T07:26:00;30.95;;;18.55;;
15616;SDS011;7908;51.688;7.130;2023-08-12T07:28:29;23.88;;;17.85;;
15616;SDS011;7908;51.688;7.130;2023-08-12T07:31:01;23.35;;;17.30;;
15616;SDS011;7908;51.688;7.130;2023-08-12T07:33:31;23.15;;;17.95;;
15616;SDS011;7908;51.688;7.130;2023-08-12T07:36:01;24.88;;;17.00;;
15616;SDS011;7908;51.688;7.130;2023-08-12T07:38:30;22.80;;;16.73;;
15616;SDS011;7908;51.688;7.130;2023-08-12T07:40:59;22.15;;;15.35;;
15616;SDS011;7908;51.688;7.130;2023-08-12T07:43:29;17.30;;;13.40;;
15616;SDS011;7908;51.688;7.130;2023-08-12T07:45:58;15.80;;;13.57;;
15616;SDS011;7908;51.688;7.130;2023-08-12T07:48:32;20.35;;;14.90;;
15616;SDS011;7908;51.688;7.130;2023-08-12T07:51:01;19.83;;;13.95;;
15616;SDS011;7908;51.688;7.130;2023-08-12T07:53:34;16.70;;;13.88;;
15616;SDS011;7908;51.688;7.130;2023-08-12T07:56:03;16.08;;;11.43;;
15616;SDS011;7908;51.688;7.130;2023-08-12T07:58:32;12.20;;;10.90;;
15616;SDS011;7908;51.688;7.130;2023-08-12T08:01:03;11.98;;;9.98;;
15616;SDS011;7908;51.688;7.130;2023-08-12T08:03:39;10.65;;;9.30;;
15616;SDS011;7908;51.688;7.130;2023-08-12T08:06:09;10.85;;;8.30;;
15616;SDS011;7908;51.688;7.130;2023-08-12T08:08:39;12.40;;;9.20;;
15616;SDS011;7908;51.688;7.130;2023-08-12T08:11:09;9.93;;;8.88;;
15616;SDS011;7908;51.688;7.130;2023-08-12T08:13:47;11.52;;;8.63;;
15616;SDS011;7908;51.688;7.130;2023-08-12T08:16:17;11.75;;;8.70;;
15616;SDS011;7908;51.688;7.130;2023-08-12T08:18:49;11.00;;;8.82;;
15616;SDS011;7908;51.688;7.130;2023-08-12T08:21:24;12.73;;;8.70;;
15616;SDS011;7908;51.688;7.130;2023-08-12T08:23:56;11.52;;;7.95;;
15616;SDS011;7908;51.688;7.130;2023-08-12T08:26:27;10.70;;;8.07;;
15616;SDS011;7908;51.688;7.130;2023-08-12T08:29:23;8.55;;;7.75;;
15616;SDS011;7908;51.688;7.130;2023-08-12T08:31:59;8.50;;;7.63;;
15616;SDS011;7908;51.688;7.130;2023-08-12T08:34:31;12.10;;;9.15;;
15616;SDS011;7908;51.688;7.130;2023-08-12T08:37:10;8.90;;;7.95;;
15616;SDS011;7908;51.688;7.130;2023-08-12T08:39:43;9.35;;;8.32;;
15616;SDS011;7908;51.688;7.130;2023-08-12T08:42:15;10.23;;;7.47;;
15616;SDS011;7908;51.688;7.130;2023-08-12T08:44:52;9.18;;;8.30;;
15616;SDS011;7908;51.688;7.130;2023-08-12T08:47:25;7.88;;;7.07;;
15616;SDS011;7908;51.688;7.130;2023-08-12T08:49:57;9.32;;;8.32;;
15616;SDS011;7908;51.688;7.130;2023-08-12T08:52:33;10.48;;;8.35;;
15616;SDS011;7908;51.688;7.130;2023-08-12T08:55:04;9.40;;;7.90;;
15616;SDS011;7908;51.688;7.130;2023-08-12T08:57:36;8.85;;;8.02;;
15616;SDS011;7908;51.688;7.130;2023-08-12T09:00:18;8.95;;;8.05;;
15616;SDS011;7908;51.688;7.130;2023-08-12T09:02:51;8.93;;;8.18;;
15616;SDS011;7908;51.688;7.130;2023-08-12T09:05:26;9.65;;;7.45;;
15616;SDS011;7908;51.688;7.130;2023-08-12T09:07:59;9.25;;;8.32;;
15616;SDS011;7908;51.688;7.130;2023-08-12T09:10:40;7.97;;;7.18;;
15616;SDS011;7908;51.688;7.130;2023-08-12T09:13:24;8.43;;;7.63;;
15616;SDS011;7908;51.688;7.130;2023-08-12T09:15:55;9.93;;;8.10;;
15616;SDS011;7908;51.688;7.130;2023-08-12T09:18:31;7.90;;;7.20;;
15616;SDS011;7908;51.688;7.130;2023-08-12T09:21:09;7.88;;;7.03;;
15616;SDS011;7908;51.688;7.130;2023-08-12T09:23:39;8.55;;;7.65;;
15616;SDS011;7908;51.688;7.130;2023-08-12T09:26:15;8.15;;;7.40;;
15616;SDS011;7908;51.688;7.130;2023-08-12T09:28:56;9.50;;;8.20;;
15616;SDS011;7908;51.688;7.130;2023-08-12T09:31:31;8.93;;;8.00;;
15616;SDS011;7908;51.688;7.130;2023-08-12T09:34:18;9.40;;;8.50;;
15616;SDS011;7908;51.688;7.130;2023-08-12T09:37:02;8.38;;;7.57;;
15616;SDS011;7908;51.688;7.130;2023-08-12T09:39:33;8.27;;;7.40;;
15616;SDS011;7908;51.688;7.130;2023-08-12T09:42:11;8.10;;;7.10;;
15616;SDS011;7908;51.688;7.130;2023-08-12T09:44:47;9.57;;;8.77;;
15616;SDS011;7908;51.688;7.130;2023-08-12T09:47:24;8.98;;;8.18;;
15616;SDS011;7908;51.688;7.130;2023-08-12T09:49:57;8.38;;;7.47;;
15616;SDS011;7908;51.688;7.130;2023-08-12T09:52:46;7.35;;;6.65;;
15616;SDS011;7908;51.688;7.130;2023-08-12T09:55:24;8.25;;;6.28;;
15616;SDS011;7908;51.688;7.130;2023-08-12T09:58:09;8.20;;;7.32;;
15616;SDS011;7908;51.688;7.130;2023-08-12T10:01:08;7.53;;;6.70;;
15616;SDS011;7908;51.688;7.130;2023-08-12T10:03:57;7.82;;;6.53;;
15616;SDS011;7908;51.688;7.130;2023-08-12T10:06:33;7.55;;;6.75;;
15616;SDS011;7908;51.688;7.130;2023-08-12T10:09:17;7.90;;;6.28;;
15616;SDS011;7908;51.688;7.130;2023-08-12T10:11:51;7.03;;;6.20;;
15616;SDS011;7908;51.688;7.130;2023-08-12T10:14:28;7.65;;;6.95;;
15616;SDS011;7908;51.688;7.130;2023-08-12T10:17:06;7.57;;;6.60;;
15616;SDS011;7908;51.688;7.130;2023-08-12T10:20:08;6.20;;;5.60;;
15616;SDS011;7908;51.688;7.130;2023-08-12T10:22:46;5.70;;;5.20;;
15616;SDS011;7908;51.688;7.130;2023-08-12T10:25:20;6.10;;;5.57;;
15616;SDS011;7908;51.688;7.130;2023-08-12T10:27:54;7.32;;;5.28;;
15616;SDS011;7908;51.688;7.130;2023-08-12T10:30:31;5.25;;;4.75;;
15616;SDS011;7908;51.688;7.130;2023-08-12T10:33:03;5.57;;;5.07;;
15616;SDS011;7908;51.688;7.130;2023-08-12T10:35:40;4.97;;;4.30;;
15616;SDS011;7908;51.688;7.130;2023-08-12T10:38:22;5.43;;;4.63;;
15616;SDS011;7908;51.688;7.130;2023-08-12T10:41:17;6.78;;;5.82;;
15616;SDS011;7908;51.688;7.130;2023-08-12T10:43:53;5.05;;;4.13;;
15616;SDS011;7908;51.688;7.130;2023-08-12T10:46:37;3.95;;;3.65;;
15616;SDS011;7908;51.688;7.130;2023-08-12T10:49:15;3.78;;;3.40;;
15616;SDS011;7908;51.688;7.130;2023-08-12T10:52:03;3.60;;;3.25;;
15616;SDS011;7908;51.688;7.130;2023-08-12T10:54:33;5.47;;;4.32;;
15616;SDS011;7908;51.688;7.130;2023-08-12T10:57:09;6.93;;;4.35;;
15616;SDS011;7908;51.688;7.130;2023-08-12T10:59:50;4.45;;;3.67;;
15616;SDS011;7908;51.688;7.130;2023-08-12T11:02:30;6.00;;;5.40;;
15616;SDS011;7908;51.688;7.130;2023-08-12T11:08:24;6.47;;;5.82;;
15616;SDS011;7908;51.688;7.130;2023-08-12T11:11:10;15.63;;;12.60;;
15616;SDS011;7908;51.688;7.130;2023-08-12T11:13:54;16.35;;;13.02;;
15616;SDS011;7908;51.688;7.130;2023-08-12T11:16:34;8.52;;;4.50;;
15616;SDS011;7908;51.688;7.130;2023-08-12T11:19:22;5.95;;;5.15;;
15616;SDS011;7908;51.688;7.130;2023-08-12T11:22:02;7.57;;;5.43;;
15616;SDS011;7908;51.688;7.130;2023-08-12T11:24:40;4.57;;;3.67;;
15616;SDS011;7908;51.688;7.130;2023-08-12T11:27:31;4.30;;;3.70;;
15616;SDS011;7908;51.688;7.130;2023-08-12T11:30:15;4.43;;;3.67;;
15616;SDS011;7908;51.688;7.130;2023-08-12T11:32:59;4.22;;;3.83;;
15616;SDS011;7908;51.688;7.130;2023-08-12T11:35:32;4.72;;;3.47;;
15616;SDS011;7908;51.688;7.130;2023-08-12T11:38:05;6.80;;;3.53;;
15616;SDS011;7908;51.688;7.130;2023-08-12T11:40:53;4.93;;;4.32;;
15616;SDS011;7908;51.688;7.130;2023-08-12T11:43:32;4.85;;;3.85;;
15616;SDS011;7908;51.688;7.130;2023-08-12T11:46:08;5.03;;;3.67;;
15616;SDS011;7908;51.688;7.130;2023-08-12T11:48:47;9.07;;;4.40;;
15616;SDS011;7908;51.688;7.130;2023-08-12T11:51:17;7.38;;;4.40;;
15616;SDS011;7908;51.688;7.130;2023-08-12T11:53:46;8.02;;;4.55;;
15616;SDS011;7908;51.688;7.130;2023-08-12T11:56:21;4.82;;;3.83;;
15616;SDS011;7908;51.688;7.130;2023-08-12T11:59:00;4.47;;;3.63;;
15616;SDS011;7908;51.688;7.130;2023-08-12T12:01:45;4.03;;;3.63;;
15616;SDS011;7908;51.688;7.130;2023-08-12T12:04:17;3.92;;;3.08;;
15616;SDS011;7908;51.688;7.130;2023-08-12T12:06:50;6.30;;;3.55;;
15616;SDS011;7908;51.688;7.130;2023-08-12T12:09:34;4.38;;;4.05;;
15616;SDS011;7908;51.688;7.130;2023-08-12T12:12:09;4.55;;;4.15;;
15616;SDS011;7908;51.688;7.130;2023-08-12T12:14:39;5.30;;;3.90;;
15616;SDS011;7908;51.688;7.130;2023-08-12T12:17:22;4.47;;;3.33;;
15616;SDS011;7908;51.688;7.130;2023-08-12T12:19:58;5.13;;;3.20;;
15616;SDS011;7908;51.688;7.130;2023-08-12T12:22:29;3.20;;;2.90;;
15616;SDS011;7908;51.688;7.130;2023-08-12T12:25:05;4.10;;;3.00;;
15616;SDS011;7908;51.688;7.130;2023-08-12T12:27:37;4.97;;;2.50;;
15616;SDS011;7908;51.688;7.130;2023-08-12T12:30:10;2.90;;;2.67;;
15616;SDS011;7908;51.688;7.130;2023-08-12T12:32:45;2.58;;;2.38;;
15616;SDS011;7908;51.688;7.130;2023-08-12T12:35:18;2.50;;;2.30;;
15616;SDS011;7908;51.688;7.130;2023-08-12T12:37:50;3.13;;;2.63;;
15616;SDS011;7908;51.688;7.130;2023-08-12T12:40:27;2.35;;;2.15;;
15616;SDS011;7908;51.688;7.130;2023-08-12T12:42:58;2.88;;;2.67;;
15616;SDS011;7908;51.688;7.130;2023-08-12T12:45:27;3.40;;;3.10;;
15616;SDS011;7908;51.688;7.130;2023-08-12T12:48:00;3.60;;;3.15;;
15616;SDS011;7908;51.688;7.130;2023-08-12T12:50:32;3.10;;;2.90;;
15616;SDS011;7908;51.688;7.130;2023-08-12T12:53:19;3.63;;;3.33;;
15616;SDS011;7908;51.688;7.130;2023-08-12T12:55:58;3.50;;;3.20;;
15616;SDS011;7908;51.688;7.130;2023-08-12T12:58:36;4.57;;;3.25;;
15616;SDS011;7908;51.688;7.130;2023-08-12T13:01:07;3.15;;;2.92;;
15616;SDS011;7908;51.688;7.130;2023-08-12T13:03:39;3.90;;;3.47;;
15616;SDS011;7908;51.688;7.130;2023-08-12T13:06:09;4.50;;;4.10;;
15616;SDS011;7908;51.688;7.130;2023-08-12T13:08:42;4.15;;;3.38;;
15616;SDS011;7908;51.688;7.130;2023-08-12T13:11:14;5.63;;;3.50;;
15616;SDS011;7908;51.688;7.130;2023-08-12T13:13:45;4.00;;;3.70;;
15616;SDS011;7908;51.688;7.130;2023-08-12T13:16:15;6.80;;;3.88;;
15616;SDS011;7908;51.688;7.130;2023-08-12T13:18:49;4.88;;;4.43;;
15616;SDS011;7908;51.688;7.130;2023-08-12T13:21:21;4.47;;;3.83;;
15616;SDS011;7908;51.688;7.130;2023-08-12T13:23:52;4.55;;;4.07;;
15616;SDS011;7908;51.688;7.130;2023-08-12T13:26:34;5.32;;;4.82;;
15616;SDS011;7908;51.688;7.130;2023-08-12T13:29:06;4.55;;;4.15;;
15616;SDS011;7908;51.688;7.130;2023-08-12T13:31:36;5.32;;;4.82;;
15616;SDS011;7908;51.688;7.130;2023-08-12T13:34:08;5.15;;;4.32;;
15616;SDS011;7908;51.688;7.130;2023-08-12T13:36:38;5.43;;;4.93;;
15616;SDS011;7908;51.688;7.130;2023-08-12T13:39:08;5.80;;;4.85;;
15616;SDS011;7908;51.688;7.130;2023-08-12T13:41:37;5.28;;;4.78;;
15616;SDS011;7908;51.688;7.130;2023-08-12T13:44:06;4.18;;;3.85;;
15616;SDS011;7908;51.688;7.130;2023-08-12T13:46:36;3.92;;;3.60;;
15616;SDS011;7908;51.688;7.130;2023-08-12T13:49:12;3.78;;;3.45;;
15616;SDS011;7908;51.688;7.130;2023-08-12T13:51:42;4.68;;;4.20;;
15616;SDS011;7908;51.688;7.130;2023-08-12T13:54:12;5.43;;;4.93;;
15616;SDS011;7908;51.688;7.130;2023-08-12T13:56:48;6.70;;;5.75;;
15616;SDS011;7908;51.688;7.130;2023-08-12T13:59:18;6.32;;;5.72;;
15616;SDS011;7908;51.688;7.130;2023-08-12T14:01:48;7.72;;;6.60;;
15616;SDS011;7908;51.688;7.130;2023-08-12T14:04:38;7.70;;;6.90;;
15616;SDS011;7908;51.688;7.130;2023-08-12T14:07:10;10.15;;;7.40;;
15616;SDS011;7908;51.688;7.130;2023-08-12T14:09:41;7.00;;;6.30;;
15616;SDS011;7908;51.688;7.130;2023-08-12T14:12:11;9.10;;;7.65;;
15616;SDS011;7908;51.688;7.130;2023-08-12T14:14:44;5.70;;;5.03;;
15616;SDS011;7908;51.688;7.130;2023-08-12T14:17:13;3.25;;;2.95;;
15616;SDS011;7908;51.688;7.130;2023-08-12T14:19:50;3.03;;;2.53;;
15616;SDS011;7908;51.688;7.130;2023-08-12T14:22:20;2.70;;;2.50;;
15616;SDS011;7908;51.688;7.130;2023-08-12T14:24:50;2.25;;;2.15;;
15616;SDS011;7908;51.688;7.130;2023-08-12T14:27:21;2.53;;;2.33;;
15616;SDS011;7908;51.688;7.130;2023-08-12T14:29:51;2.40;;;2.15;;
15616;SDS011;7908;51.688;7.130;2023-08-12T14:32:21;3.03;;;2.15;;
15616;SDS011;7908;51.688;7.130;2023-08-12T14:34:55;2.13;;;1.60;;
15616;SDS011;7908;51.688;7.130;2023-08-12T14:37:32;2.08;;;1.80;;
15616;SDS011;7908;51.688;7.130;2023-08-12T14:40:09;1.85;;;1.70;;
15616;SDS011;7908;51.688;7.130;2023-08-12T14:42:42;2.03;;;1.73;;
15616;SDS011;7908;51.688;7.130;2023-08-12T14:45:12;1.73;;;1.60;;
15616;SDS011;7908;51.688;7.130;2023-08-12T14:47:42;1.67;;;1.27;;
15616;SDS011;7908;51.688;7.130;2023-08-12T14:50:23;1.63;;;1.52;;
15616;SDS011;7908;51.688;7.130;2023-08-12T14:52:58;2.17;;;1.50;;
15616;SDS011;7908;51.688;7.130;2023-08-12T14:55:31;2.78;;;1.75;;
15616;SDS011;7908;51.688;7.130;2023-08-12T14:58:01;2.75;;;1.63;;
15616;SDS011;7908;51.688;7.130;2023-08-12T15:00:33;1.30;;;1.20;;
15616;SDS011;7908;51.688;7.130;2023-08-12T15:03:05;1.90;;;1.40;;
15616;SDS011;7908;51.688;7.130;2023-08-12T15:05:39;2.30;;;1.67;;
15616;SDS011;7908;51.688;7.130;2023-08-12T15:08:13;2.30;;;1.40;;
15616;SDS011;7908;51.688;7.130;2023-08-12T15:10:44;3.80;;;1.50;;
15616;SDS011;7908;51.688;7.130;2023-08-12T15:13:23;3.72;;;1.75;;
15616;SDS011;7908;51.688;7.130;2023-08-12T15:15:55;2.00;;;1.20;;
15616;SDS011;7908;51.688;7.130;2023-08-12T15:18:25;2.72;;;1.60;;
15616;SDS011;7908;51.688;7.130;2023-08-12T15:21:08;2.92;;;1.25;;